Weerspreuk van de dag;      Als in januari de vorst niet komen wil,dan is zij er zeker in april.
Het weer levert geen direct gevaar op.    Er zijn geen waarschuwingen afgegeven.


Onweer radar Meer informatie blitzortung!


Regen radar Meer informatie rain snow radar


Bekijk deze sites ook eens:

FPL Automotive (TIP)

Autostekkers.nl (TIP)

Over Luyksgestel

BOL.com

Weerstation Noordbergum

Weerstation Afferden

Drone kopen?

Weerstation Hapert

Weerstation Hoogeloon

Weerstation Hechtel (B)

Weerstation Son&Breugel

Weerstation Castaert

Kamera Express

Smartphonehoesjes

Weerstation Tilburg Reeshof

Weerstation Scheulder

Samostour webcams

Samos actueel

Weerwoord (forum)

Griekenlandforum

Vakantie naar Samos

Alpenweerman

Wintersportweerman

Sneeuwhoogte Oostenrijk

Sneeuwhoogte Zwitserland

Sneeuwhoogte Duitsland

Sneeuwhoogte Italie

Sneeuwhoogte Frankrijk

Winterzon

Webcams Gargellen

Gargellen actueel

Gargellen Lawinedienst

Wintersportweer



Weather Underground Historische gegevens

Dagelijkse Samenvatting januari 21, 2018 Eenheden:  Metrisch    Engels   Beide
« Vorige Dag
Volgende Dag »
Dagelijkse Wekelijkse Maandelijkse Jaarlijkse Aangepaste
  Huidig: Hoog: Laag: Gemiddeld:
Temperatuur: 5.6 °C 5.6 °C -0.3 °C 1.8 °C
Dauwpunt: 3.3 °C 3.5 °C -1.0 °C 1 °C
Vochtigheid: 85 % 96 % 85 % 94 %
Wind snelheid: 1.4 km/h 13.0 km/h 0.0 km/h 4.9 km/h
Windvlaag: 12.9 km/h 16.1 km/h - -
Wind:SSW - - SW
Luchtdruk: 1015.1 hPa 1015.1 hPa 1003.3 hPa -
Neerslag: 0.3 mm      
Historical Graphs
 
 
Tabel voor januari 21, 2018
Tijd Temperatuur Dauwpunt Luchtdruk Wind Wind snelheid Windvlaag Vochtigheid Regenval per uur
00:03 2.2 °C 1.6 °C 1003.3 hPa West 1.4 km/h 6.4 km/h 96 % 0.0 mm
00:08 2.2 °C 1.6 °C 1003.3 hPa SW 1.4 km/h 9.7 km/h 96 % 0.0 mm
00:13 2.2 °C 1.6 °C 1003.3 hPa West 7.9 km/h 11.3 km/h 96 % 0.0 mm
00:18 2.3 °C 1.7 °C 1003.9 hPa West 3.2 km/h 12.9 km/h 96 % 0.0 mm
00:28 2.3 °C 1.7 °C 1003.9 hPa WSW 7.9 km/h 9.7 km/h 96 % 0.0 mm
00:33 2.3 °C 1.7 °C 1003.9 hPa WNW 7.9 km/h 9.7 km/h 96 % 0.0 mm
00:38 2.3 °C 1.7 °C 1003.9 hPa WSW 1.4 km/h 9.7 km/h 96 % 0.0 mm
00:43 2.3 °C 1.7 °C 1003.9 hPa SW 7.9 km/h 11.3 km/h 96 % 0.0 mm
00:53 2.3 °C 1.7 °C 1004.3 hPa West 1.4 km/h 9.7 km/h 96 % 0.0 mm
00:58 2.4 °C 1.8 °C 1004.3 hPa West 3.2 km/h 8.0 km/h 96 % 0.0 mm
01:03 2.4 °C 1.8 °C 1004.6 hPa West 4.7 km/h 9.7 km/h 96 % 0.0 mm
01:08 2.4 °C 1.8 °C 1004.6 hPa West 7.9 km/h 9.7 km/h 96 % 0.0 mm
01:13 2.4 °C 1.8 °C 1004.6 hPa WSW 1.4 km/h 8.0 km/h 96 % 0.0 mm
01:18 2.4 °C 1.8 °C 1005.3 hPa WSW 6.4 km/h 9.7 km/h 96 % 0.0 mm
01:23 2.3 °C 1.7 °C 1005.3 hPa WSW 1.4 km/h 6.4 km/h 96 % 0.0 mm
01:28 2.3 °C 1.7 °C 1005.3 hPa WSW 4.7 km/h 8.0 km/h 96 % 0.0 mm
01:33 2.3 °C 1.7 °C 1005.3 hPa WSW 1.4 km/h 8.0 km/h 96 % 0.0 mm
01:39 2.3 °C 1.7 °C 1005.3 hPa SW 3.2 km/h 9.7 km/h 96 % 0.0 mm
01:44 2.3 °C 1.7 °C 1005.3 hPa West 7.9 km/h 9.7 km/h 96 % 0.0 mm
01:49 2.3 °C 1.7 °C 1005.6 hPa WSW 1.4 km/h 3.2 km/h 96 % 0.0 mm
01:54 2.2 °C 1.6 °C 1005.6 hPa WSW 1.4 km/h 9.7 km/h 96 % 0.0 mm
01:59 2.2 °C 1.5 °C 1005.6 hPa WSW 3.2 km/h 8.0 km/h 95 % 0.0 mm
02:04 2.2 °C 1.6 °C 1006.0 hPa SW 3.2 km/h 8.0 km/h 96 % 0.0 mm
02:09 2.2 °C 1.6 °C 1006.0 hPa WSW 1.4 km/h 8.0 km/h 96 % 0.0 mm
02:14 2.2 °C 1.6 °C 1006.0 hPa WSW 6.4 km/h 11.3 km/h 96 % 0.0 mm
02:19 2.3 °C 1.7 °C 1006.3 hPa WSW 1.4 km/h 8.0 km/h 96 % 0.0 mm
02:24 2.3 °C 1.7 °C 1006.3 hPa WSW 6.4 km/h 14.5 km/h 96 % 0.0 mm
02:29 2.3 °C 1.7 °C 1006.3 hPa SW 7.9 km/h 11.3 km/h 96 % 0.0 mm
02:34 2.3 °C 1.7 °C 1006.7 hPa West 7.9 km/h 11.3 km/h 96 % 0.0 mm
02:39 2.3 °C 1.7 °C 1006.7 hPa WSW 1.4 km/h 11.3 km/h 96 % 0.0 mm
02:44 2.2 °C 1.6 °C 1006.7 hPa WSW 3.2 km/h 12.9 km/h 96 % 0.0 mm
02:49 2.2 °C 1.6 °C 1007.0 hPa SW 3.2 km/h 12.9 km/h 96 % 0.0 mm
02:54 2.1 °C 1.4 °C 1007.0 hPa West 7.9 km/h 12.9 km/h 95 % 0.0 mm
02:59 2.0 °C 1.3 °C 1007.0 hPa WSW 1.4 km/h 9.7 km/h 95 % 0.0 mm
03:04 1.9 °C 1.2 °C 1007.3 hPa WSW 6.4 km/h 9.7 km/h 95 % 0.0 mm
03:09 1.9 °C 1.2 °C 1007.3 hPa WSW 1.4 km/h 11.3 km/h 95 % 0.0 mm
03:14 1.8 °C 1.1 °C 1007.3 hPa WSW 6.4 km/h 11.3 km/h 95 % 0.0 mm
03:19 1.7 °C 1.0 °C 1008.0 hPa SSW 1.4 km/h 8.0 km/h 95 % 0.0 mm
03:24 1.7 °C 1.0 °C 1008.0 hPa West 3.2 km/h 11.3 km/h 95 % 0.0 mm
03:29 1.7 °C 1.0 °C 1008.0 hPa WSW 3.2 km/h 11.3 km/h 95 % 0.0 mm
03:34 1.6 °C 0.9 °C 1008.0 hPa WSW 7.9 km/h 8.0 km/h 95 % 0.0 mm
03:39 1.6 °C 0.9 °C 1008.0 hPa SW 9.7 km/h 9.7 km/h 95 % 0.0 mm
03:49 1.5 °C 0.8 °C 1008.0 hPa SW 3.2 km/h 9.7 km/h 95 % 0.0 mm
03:54 1.5 °C 0.8 °C 1008.0 hPa West 3.2 km/h 9.7 km/h 95 % 0.0 mm
04:00 1.4 °C 0.7 °C 1008.0 hPa SW 4.7 km/h 12.9 km/h 95 % 0.0 mm
04:05 1.4 °C 0.7 °C 1008.4 hPa WSW 6.4 km/h 8.0 km/h 95 % 0.3 mm
04:10 1.4 °C 0.7 °C 1008.4 hPa SW 6.4 km/h 9.7 km/h 95 % 0.3 mm
04:15 1.3 °C 0.6 °C 1008.4 hPa WSW 6.4 km/h 12.9 km/h 95 % 0.3 mm
04:20 1.3 °C 0.6 °C 1008.4 hPa SW 3.2 km/h 11.3 km/h 95 % 0.3 mm
04:25 1.2 °C 0.5 °C 1008.4 hPa SW 1.4 km/h 9.7 km/h 95 % 0.3 mm
04:30 1.1 °C 0.4 °C 1009.0 hPa WSW 3.2 km/h 8.0 km/h 95 % 0.3 mm
04:35 1.1 °C 0.4 °C 1009.0 hPa WSW 1.4 km/h 8.0 km/h 95 % 0.3 mm
04:40 1.0 °C 0.3 °C 1009.0 hPa SW 7.9 km/h 9.7 km/h 95 % 0.3 mm
04:45 1.1 °C 0.4 °C 1009.0 hPa SW 4.7 km/h 9.7 km/h 95 % 0.3 mm
04:50 1.0 °C 0.4 °C 1009.0 hPa Calm   8.0 km/h 96 % 0.3 mm
04:55 1.1 °C 0.4 °C 1009.0 hPa WSW 1.4 km/h 9.7 km/h 95 % 0.3 mm
05:00 1.1 °C 0.4 °C 1009.4 hPa West 6.4 km/h 9.7 km/h 95 % 0.3 mm
05:05 1.1 °C 0.5 °C 1009.4 hPa WSW 4.7 km/h 8.0 km/h 96 % 0.0 mm
05:10 1.1 °C 0.4 °C 1009.4 hPa WSW 6.4 km/h 9.7 km/h 95 % 0.0 mm
05:15 1.0 °C 0.3 °C 1009.7 hPa West 1.4 km/h 8.0 km/h 95 % 0.0 mm
05:20 0.9 °C 0.2 °C 1009.7 hPa WSW 1.4 km/h 6.4 km/h 95 % 0.0 mm
05:26 0.8 °C 0.1 °C 1009.7 hPa WSW 3.2 km/h 3.2 km/h 95 % 0.0 mm
05:31 0.8 °C 0.1 °C 1010.0 hPa WSW 1.4 km/h 8.0 km/h 95 % 0.0 mm
05:36 0.7 °C 0.0 °C 1010.0 hPa WSW 3.2 km/h 6.4 km/h 95 % 0.0 mm
05:41 0.6 °C -0.1 °C 1010.0 hPa SW 3.2 km/h 8.0 km/h 95 % 0.0 mm
05:46 0.6 °C -0.1 °C 1010.0 hPa West 1.4 km/h 8.0 km/h 95 % 0.0 mm
05:51 0.7 °C 0.1 °C 1010.0 hPa West 3.2 km/h 9.7 km/h 96 % 0.0 mm
05:56 0.7 °C 0.1 °C 1010.0 hPa SW 4.7 km/h 9.7 km/h 96 % 0.0 mm
06:01 0.7 °C 0.0 °C 1010.7 hPa SW 3.2 km/h 8.0 km/h 95 % 0.0 mm
06:06 0.6 °C -0.1 °C 1010.7 hPa SW 3.2 km/h 8.0 km/h 95 % 0.0 mm
06:16 0.4 °C -0.3 °C 1010.7 hPa SW 3.2 km/h 8.0 km/h 95 % 0.0 mm
06:21 0.4 °C -0.3 °C 1010.7 hPa SW 4.7 km/h 8.0 km/h 95 % 0.0 mm
06:26 0.3 °C -0.4 °C 1010.7 hPa SW 1.4 km/h 6.4 km/h 95 % 0.0 mm
06:31 0.3 °C -0.4 °C 1010.7 hPa Calm   8.0 km/h 95 % 0.0 mm
06:36 0.3 °C -0.4 °C 1010.7 hPa WSW 1.4 km/h 6.4 km/h 95 % 0.0 mm
06:41 0.2 °C -0.5 °C 1010.7 hPa SW 6.4 km/h 8.0 km/h 95 % 0.0 mm
06:46 0.3 °C -0.4 °C 1011.1 hPa SW 3.2 km/h 8.0 km/h 95 % 0.0 mm
06:51 0.2 °C -0.5 °C 1011.1 hPa SW 6.4 km/h 9.7 km/h 95 % 0.0 mm
06:56 0.2 °C -0.5 °C 1011.1 hPa SW 4.7 km/h 8.0 km/h 95 % 0.0 mm
07:01 0.2 °C -0.5 °C 1011.4 hPa SW 3.2 km/h 6.4 km/h 95 % 0.0 mm
07:06 0.2 °C -0.5 °C 1011.4 hPa SW 3.2 km/h 6.4 km/h 95 % 0.0 mm
07:11 0.1 °C -0.6 °C 1011.4 hPa SW 7.9 km/h 8.0 km/h 95 % 0.0 mm
07:16 0.1 °C -0.6 °C 1011.7 hPa SW 3.2 km/h 8.0 km/h 95 % 0.0 mm
07:21 0.1 °C -0.6 °C 1011.7 hPa SSW 1.4 km/h 8.0 km/h 95 % 0.0 mm
07:26 0.1 °C -0.6 °C 1011.7 hPa SW 7.9 km/h 8.0 km/h 95 % 0.0 mm
07:31 0.1 °C -0.6 °C 1012.1 hPa WSW 4.7 km/h 8.0 km/h 95 % 0.0 mm
07:36 0.1 °C -0.6 °C 1012.1 hPa SW 3.2 km/h 9.7 km/h 95 % 0.0 mm
07:41 0.1 °C -0.6 °C 1012.1 hPa SW 3.2 km/h 8.0 km/h 95 % 0.0 mm
07:46 0.0 °C -0.7 °C 1012.1 hPa SW 3.2 km/h 6.4 km/h 95 % 0.0 mm
08:12 -0.2 °C -0.9 °C 1012.4 hPa SW 3.2 km/h 6.4 km/h 95 % 0.0 mm
08:17 -0.2 °C -0.9 °C 1012.8 hPa SW 6.4 km/h 8.0 km/h 95 % 0.0 mm
08:22 -0.2 °C -0.9 °C 1012.8 hPa SW 6.4 km/h 9.7 km/h 95 % 0.0 mm
08:27 -0.2 °C -0.9 °C 1012.8 hPa SSW 4.7 km/h 8.0 km/h 95 % 0.0 mm
08:32 -0.3 °C -1.0 °C 1012.8 hPa SW 1.4 km/h 8.0 km/h 95 % 0.0 mm
08:37 -0.3 °C -1.0 °C 1012.8 hPa SW 4.7 km/h 6.4 km/h 95 % 0.0 mm
08:42 -0.3 °C -1.0 °C 1012.8 hPa SW 1.4 km/h 8.0 km/h 95 % 0.0 mm
08:47 -0.3 °C -1.0 °C 1013.1 hPa SSW 1.4 km/h 8.0 km/h 95 % 0.0 mm
08:52 -0.3 °C -0.9 °C 1013.1 hPa SW 6.4 km/h 8.0 km/h 96 % 0.0 mm
08:57 -0.2 °C -0.9 °C 1013.1 hPa WSW 1.4 km/h 6.4 km/h 95 % 0.0 mm
09:02 -0.1 °C -0.8 °C 1013.4 hPa SW 7.9 km/h 8.0 km/h 95 % 0.0 mm
09:07 0.0 °C -0.6 °C 1013.4 hPa SSW 7.9 km/h 9.7 km/h 96 % 0.0 mm
09:12 0.1 °C -0.5 °C 1013.4 hPa SSW 7.9 km/h 8.0 km/h 96 % 0.0 mm
09:17 0.2 °C -0.4 °C 1013.8 hPa SSW 6.4 km/h 8.0 km/h 96 % 0.0 mm
09:22 0.3 °C -0.3 °C 1013.8 hPa Calm   8.0 km/h 96 % 0.0 mm
09:27 0.4 °C -0.2 °C 1013.8 hPa SSW 6.4 km/h 9.7 km/h 96 % 0.0 mm
09:37 0.5 °C -0.1 °C 1013.8 hPa SSW 4.7 km/h 9.7 km/h 96 % 0.0 mm
09:43 0.6 °C 0.0 °C 1013.8 hPa SSW 6.4 km/h 11.3 km/h 96 % 0.0 mm
09:48 0.6 °C 0.0 °C 1013.8 hPa SW 1.4 km/h 8.0 km/h 96 % 0.0 mm
09:58 0.8 °C 0.2 °C 1013.8 hPa SSW 7.9 km/h 9.7 km/h 96 % 0.0 mm
10:03 0.9 °C 0.3 °C 1014.1 hPa SSW 6.4 km/h 8.0 km/h 96 % 0.0 mm
10:08 0.9 °C 0.3 °C 1014.1 hPa SW 3.2 km/h 8.0 km/h 96 % 0.0 mm
10:13 1.1 °C 0.5 °C 1014.1 hPa SSW 7.9 km/h 9.7 km/h 96 % 0.0 mm
10:18 1.1 °C 0.5 °C 1014.1 hPa SSW 4.7 km/h 8.0 km/h 96 % 0.0 mm
10:23 1.2 °C 0.6 °C 1014.1 hPa SSW 6.4 km/h 11.3 km/h 96 % 0.0 mm
10:28 1.3 °C 0.7 °C 1014.1 hPa SSW 3.2 km/h 8.0 km/h 96 % 0.0 mm
10:38 1.5 °C 0.9 °C 1014.4 hPa SW 7.9 km/h 11.3 km/h 96 % 0.0 mm
10:43 1.6 °C 1.0 °C 1014.4 hPa SSW 6.4 km/h 11.3 km/h 96 % 0.0 mm
10:48 1.8 °C 1.2 °C 1014.8 hPa SW 4.7 km/h 11.3 km/h 96 % 0.0 mm
10:53 2.2 °C 1.6 °C 1014.8 hPa SSW 11.1 km/h 11.3 km/h 96 % 0.0 mm
10:58 2.3 °C 1.7 °C 1014.8 hPa SW 6.4 km/h 11.3 km/h 96 % 0.0 mm
11:03 2.5 °C 1.9 °C 1014.8 hPa SW 4.7 km/h 8.0 km/h 96 % 0.0 mm
11:08 2.8 °C 2.1 °C 1014.8 hPa SW 6.4 km/h 8.0 km/h 95 % 0.0 mm
11:13 2.9 °C 2.2 °C 1014.8 hPa SW 6.4 km/h 8.0 km/h 95 % 0.0 mm
11:18 2.9 °C 2.0 °C 1014.8 hPa SW 9.7 km/h 11.3 km/h 94 % 0.0 mm
11:23 3.2 °C 2.2 °C 1014.8 hPa SW 1.4 km/h 4.8 km/h 93 % 0.0 mm
11:29 3.8 °C 2.6 °C 1014.8 hPa SW 7.9 km/h 11.3 km/h 92 % 0.0 mm
11:33 3.8 °C 2.5 °C 1015.1 hPa SW 4.7 km/h 9.7 km/h 91 % 0.0 mm
11:39 3.8 °C 2.5 °C 1015.1 hPa SSW 3.2 km/h 9.7 km/h 91 % 0.0 mm
11:44 3.8 °C 2.5 °C 1015.1 hPa WSW 11.1 km/h 11.3 km/h 91 % 0.0 mm
11:49 4.1 °C 2.8 °C 1015.1 hPa WSW 6.4 km/h 9.7 km/h 91 % 0.0 mm
11:54 4.2 °C 2.7 °C 1015.1 hPa SSW 7.9 km/h 11.3 km/h 90 % 0.0 mm
11:59 4.3 °C 2.6 °C 1015.1 hPa SSW 7.9 km/h 12.9 km/h 89 % 0.0 mm
12:04 4.4 °C 2.7 °C 1015.1 hPa SW 7.9 km/h 9.7 km/h 89 % 0.0 mm
12:09 4.3 °C 2.6 °C 1015.1 hPa WSW 6.4 km/h 14.5 km/h 89 % 0.0 mm
12:14 4.3 °C 2.6 °C 1015.1 hPa SSW 13.0 km/h 13.0 km/h 89 % 0.0 mm
12:19 4.2 °C 2.5 °C 1015.1 hPa SSW 11.1 km/h 16.1 km/h 89 % 0.0 mm
12:24 4.3 °C 2.8 °C 1015.1 hPa SSW 3.2 km/h 8.0 km/h 90 % 0.0 mm
12:34 4.7 °C 3.0 °C 1014.8 hPa SSW 6.4 km/h 11.3 km/h 89 % 0.0 mm
12:39 4.8 °C 3.1 °C 1014.8 hPa SSW 7.9 km/h 11.3 km/h 89 % 0.0 mm
12:44 4.9 °C 3.2 °C 1014.8 hPa SSW 6.4 km/h 11.3 km/h 89 % 0.0 mm
12:49 5.1 °C 3.4 °C 1014.8 hPa SW 7.9 km/h 12.9 km/h 89 % 0.0 mm
12:54 5.2 °C 3.2 °C 1014.8 hPa SW 7.9 km/h 9.7 km/h 87 % 0.0 mm
12:59 5.2 °C 3.1 °C 1014.8 hPa SSW 7.9 km/h 12.9 km/h 86 % 0.0 mm
13:04 5.2 °C 3.2 °C 1014.8 hPa SSW 7.9 km/h 9.7 km/h 87 % 0.0 mm
13:09 5.3 °C 3.5 °C 1014.8 hPa SSW 3.2 km/h 12.9 km/h 88 % 0.0 mm
13:14 5.4 °C 3.4 °C 1014.8 hPa SW 11.1 km/h 11.3 km/h 87 % 0.0 mm
13:19 5.4 °C 3.2 °C 1015.1 hPa SSW 11.1 km/h 12.9 km/h 86 % 0.0 mm
13:24 5.4 °C 3.2 °C 1015.1 hPa South 6.4 km/h 14.5 km/h 86 % 0.0 mm
13:29 5.5 °C 3.2 °C 1015.1 hPa ESE 1.4 km/h 14.5 km/h 85 % 0.0 mm
13:34 5.6 °C 3.3 °C 1015.1 hPa SSW 13.0 km/h 14.5 km/h 85 % 0.0 mm
13:39 5.6 °C 3.3 °C 1015.1 hPa SSW 1.4 km/h 12.9 km/h 85 % 0.0 mm
Weerstation Luyksgestel
Gegevens verzameld door Weather Underground - 3.25 mb

Script ontwikkeld door  Jim McMurry - jmcmurry@mwt.net Aangepast voor de template door  Wim van der Kuil - Leuven-Template.eu

U vindt ons ook hier:

UK Metoffice

European Weather Network

Weather Underground

AWEKAS